Time;durP1;ratioP1;P1;durP2;ratioP2;P2;SDS_P1;SDS_P2;PMS_P1;PMS_P2;Temp;Humidity;BMP_temperature;BMP_pressure;BME280_temperature;BME280_humidity;BME280_pressure;Samples;Min_cycle;Max_cycle;Signal;HPM_P1;HPM_P2
2022/12/10 00:00:49;;;;;;;170.95;58.10;;;-0.10;99.90;;;;;;5096150;28;20056;-80
2022/12/10 00:03:35;;;;;;;181.38;58.95;;;-0.10;99.90;;;;;;5091850;28;20059;-85
2022/12/10 00:06:28;;;;;;;179.32;57.83;;;-0.10;99.90;;;;;;5092048;28;20392;-78
2022/12/10 00:09:18;;;;;;;190.02;60.75;;;-0.10;99.90;;;;;;5073094;28;20048;-80
2022/12/10 00:12:04;;;;;;;195.00;59.72;;;0.00;99.90;;;;;;5092384;28;20725;-84
2022/12/10 00:14:51;;;;;;;172.18;57.47;;;0.00;99.90;;;;;;5094468;28;20048;-79
2022/12/10 00:17:37;;;;;;;213.50;63.53;;;0.00;99.90;;;;;;5072237;28;20044;-79
2022/12/10 00:20:23;;;;;;;186.98;60.35;;;0.00;99.90;;;;;;5073054;28;20480;-82
2022/12/10 00:23:09;;;;;;;195.70;60.85;;;0.10;99.90;;;;;;5091151;28;20048;-82
2022/12/10 00:26:05;;;;;;;192.57;58.97;;;0.10;99.90;;;;;;5072522;28;20079;-76
2022/12/10 00:28:52;;;;;;;214.90;62.63;;;0.10;99.90;;;;;;5091507;28;20052;-77
2022/12/10 00:31:39;;;;;;;200.77;58.17;;;0.10;99.90;;;;;;5072869;28;20549;-76
2022/12/10 00:34:25;;;;;;;185.13;58.88;;;0.10;99.90;;;;;;5081052;28;20039;-76
2022/12/10 00:37:11;;;;;;;213.10;59.15;;;0.10;99.90;;;;;;5090264;28;20108;-81
2022/12/10 00:39:58;;;;;;;229.23;59.92;;;0.10;99.90;;;;;;5073198;28;20068;-79
2022/12/10 00:42:44;;;;;;;227.30;63.47;;;0.10;99.90;;;;;;5072349;28;20108;-77
2022/12/10 00:45:30;;;;;;;226.68;63.97;;;0.20;99.90;;;;;;5073675;28;20051;-79
2022/12/10 00:48:16;;;;;;;259.90;67.72;;;0.10;99.90;;;;;;5091981;28;20059;-86
2022/12/10 00:51:05;;;;;;;238.25;63.33;;;0.10;99.90;;;;;;5097213;28;20059;-77
2022/12/10 00:53:53;;;;;;;250.25;66.13;;;0.10;99.90;;;;;;5093437;28;20052;-77
2022/12/10 00:56:39;;;;;;;304.20;76.80;;;0.10;99.90;;;;;;5072062;28;20139;-80
2022/12/10 00:59:25;;;;;;;257.38;62.78;;;0.10;99.90;;;;;;5092229;28;20048;-84
2022/12/10 01:02:12;;;;;;;267.25;64.43;;;0.10;99.90;;;;;;5073648;28;20056;-77
2022/12/10 01:04:58;;;;;;;279.75;71.97;;;0.10;99.90;;;;;;5090743;28;20048;-76
2022/12/10 01:07:44;;;;;;;247.57;65.75;;;0.10;99.90;;;;;;5073607;28;20375;-77
2022/12/10 01:10:30;;;;;;;269.40;66.97;;;0.10;99.90;;;;;;5095769;28;20055;-84
2022/12/10 01:13:16;;;;;;;310.00;71.78;;;0.20;99.90;;;;;;5092623;28;20048;-76
2022/12/10 01:16:05;;;;;;;299.98;67.85;;;0.20;99.90;;;;;;5075828;28;20405;-80
2022/12/10 01:18:56;;;;;;;255.77;65.82;;;0.20;99.90;;;;;;5094219;28;20060;-84
2022/12/10 01:21:42;;;;;;;236.05;64.68;;;0.20;99.90;;;;;;5098525;28;20051;-77
2022/12/10 01:24:29;;;;;;;303.65;71.85;;;0.20;99.90;;;;;;5073797;28;20166;-81
2022/12/10 01:27:15;;;;;;;315.17;69.53;;;0.10;99.90;;;;;;5076541;28;20155;-78
2022/12/10 01:30:02;;;;;;;341.83;73.25;;;0.10;99.90;;;;;;5081948;28;20056;-83
2022/12/10 01:32:48;;;;;;;348.00;74.32;;;0.20;99.90;;;;;;5092797;28;20044;-80
2022/12/10 01:35:37;;;;;;;349.98;75.05;;;0.20;99.90;;;;;;5091931;28;20406;-83
2022/12/10 01:38:24;;;;;;;275.02;70.50;;;0.20;99.90;;;;;;5091361;28;20148;-79
2022/12/10 01:41:19;;;;;;;354.08;76.85;;;0.20;99.90;;;;;;5091712;28;20047;-83
2022/12/10 01:44:05;;;;;;;334.95;76.55;;;0.20;99.90;;;;;;5092861;28;20048;-75
2022/12/10 01:46:54;;;;;;;317.15;70.60;;;0.20;99.90;;;;;;5075229;28;20052;-81
2022/12/10 01:49:41;;;;;;;370.73;79.57;;;0.20;99.90;;;;;;5091196;28;20440;-81
2022/12/10 01:52:28;;;;;;;281.00;69.90;;;0.20;99.90;;;;;;5090247;28;20047;-80
2022/12/10 01:55:48;;;;;;;378.85;81.90;;;0.20;99.90;;;;;;5076538;28;20610;-80
2022/12/10 01:58:34;;;;;;;362.35;77.30;;;0.20;99.90;;;;;;5089922;28;20055;-82
2022/12/10 02:01:41;;;;;;;369.75;80.82;;;0.20;99.90;;;;;;5091034;28;20499;-83
2022/12/10 02:04:34;;;;;;;326.90;73.55;;;0.20;99.90;;;;;;5096121;28;20131;-82
2022/12/10 02:07:42;;;;;;;442.17;86.90;;;0.20;99.90;;;;;;5070691;28;20040;-77
2022/12/10 02:10:34;;;;;;;356.30;78.30;;;0.30;99.90;;;;;;5071910;28;20510;-83
2022/12/10 02:13:47;;;;;;;403.58;80.18;;;0.30;99.90;;;;;;5072256;28;20055;-82
2022/12/10 02:16:47;;;;;;;354.77;76.05;;;0.30;99.90;;;;;;5053243;28;20514;-77
2022/12/10 02:19:44;;;;;;;338.45;74.88;;;0.30;99.90;;;;;;5078580;28;20066;-80
2022/12/10 02:22:40;;;;;;;366.75;78.10;;;0.30;99.90;;;;;;5089427;28;20044;-86
2022/12/10 02:25:40;;;;;;;423.20;83.95;;;0.30;99.90;;;;;;5071954;28;20736;-81
2022/12/10 02:28:45;;;;;;;375.73;81.40;;;0.30;99.90;;;;;;5073998;28;20048;-81
2022/12/10 02:31:33;;;;;;;418.20;81.78;;;0.30;99.90;;;;;;5089472;28;20054;-84
2022/12/10 02:34:22;;;;;;;441.88;85.40;;;0.30;99.90;;;;;;5091980;28;20446;-85
2022/12/10 02:37:23;;;;;;;431.52;84.65;;;0.30;99.90;;;;;;5074616;28;20047;-83
2022/12/10 02:40:19;;;;;;;425.77;84.35;;;0.30;99.90;;;;;;5074545;28;20048;-77
2022/12/10 02:43:07;;;;;;;508.60;97.97;;;0.30;99.90;;;;;;5092325;28;20444;-78
2022/12/10 02:45:54;;;;;;;363.88;78.18;;;0.30;99.90;;;;;;5093344;28;20473;-83
2022/12/10 02:48:41;;;;;;;389.42;79.93;;;0.30;99.90;;;;;;5092248;28;20163;-78
2022/12/10 02:51:28;;;;;;;449.95;84.60;;;0.30;99.90;;;;;;5094111;28;20488;-79
2022/12/10 02:54:43;;;;;;;402.13;77.15;;;0.30;99.90;;;;;;5076405;28;20056;-82
2022/12/10 02:57:57;;;;;;;591.75;107.93;;;0.30;99.90;;;;;;5092770;28;20105;-80
2022/12/10 03:00:57;;;;;;;533.35;101.05;;;0.30;99.90;;;;;;5074747;28;20056;-80
2022/12/10 03:03:52;;;;;;;464.25;92.28;;;0.30;99.90;;;;;;5093205;28;20428;-79
2022/12/10 03:06:43;;;;;;;378.90;78.15;;;0.30;99.90;;;;;;5078126;28;20472;-86
2022/12/10 03:09:37;;;;;;;371.55;81.22;;;0.30;99.90;;;;;;5091648;28;20526;-82
2022/12/10 03:12:39;;;;;;;491.40;96.47;;;0.30;99.90;;;;;;5094503;28;20052;-86
2022/12/10 03:15:27;;;;;;;455.83;89.68;;;0.30;99.90;;;;;;5080897;28;20131;-86
2022/12/10 03:18:16;;;;;;;547.75;102.65;;;0.30;99.90;;;;;;5092228;28;20519;-81
2022/12/10 03:21:05;;;;;;;472.17;87.78;;;0.20;99.90;;;;;;5059868;28;20052;-85
2022/12/10 03:23:52;;;;;;;443.83;85.68;;;0.20;99.90;;;;;;5074474;28;20044;-79
2022/12/10 03:26:41;;;;;;;454.85;88.32;;;0.20;99.90;;;;;;5073485;28;20102;-83
2022/12/10 03:29:36;;;;;;;445.50;93.65;;;0.20;99.90;;;;;;5075903;28;20134;-82
2022/12/10 03:32:24;;;;;;;472.30;90.90;;;0.20;99.90;;;;;;5093447;28;20040;-82
2022/12/10 03:35:12;;;;;;;422.95;85.30;;;0.20;99.90;;;;;;5072928;28;20044;-85
2022/12/10 03:37:58;;;;;;;519.53;99.57;;;0.20;99.90;;;;;;5092735;28;20083;-84
2022/12/10 03:40:44;;;;;;;468.50;86.25;;;0.20;99.90;;;;;;5091346;28;20047;-77
2022/12/10 03:43:31;;;;;;;459.58;84.93;;;0.20;99.90;;;;;;5073039;28;20048;-86
2022/12/10 03:46:17;;;;;;;497.65;90.43;;;0.20;99.90;;;;;;5079918;28;20048;-84
2022/12/10 03:49:04;;;;;;;596.50;102.28;;;0.20;99.90;;;;;;5072789;28;20048;-87
2022/12/10 03:51:50;;;;;;;608.33;111.90;;;0.20;99.90;;;;;;5077762;28;20407;-85
2022/12/10 03:54:37;;;;;;;488.70;93.13;;;0.20;99.90;;;;;;5072062;28;20074;-79
2022/12/10 03:57:23;;;;;;;470.85;86.85;;;0.20;99.90;;;;;;5077226;28;20127;-77
2022/12/10 04:00:10;;;;;;;464.55;90.50;;;0.20;99.90;;;;;;5074785;28;20044;-79
2022/12/10 04:02:59;;;;;;;483.13;88.70;;;0.20;99.90;;;;;;5077382;28;20054;-86
2022/12/10 04:05:45;;;;;;;395.92;80.50;;;0.20;99.90;;;;;;5091215;28;20079;-82
2022/12/10 04:08:32;;;;;;;436.92;85.68;;;0.20;99.90;;;;;;5072721;28;20767;-84
2022/12/10 04:11:18;;;;;;;403.48;83.40;;;0.20;99.90;;;;;;5073955;28;20048;-78
2022/12/10 04:17:09;;;;;;;410.27;87.35;;;0.10;99.90;;;;;;5078209;28;20470;-80
2022/12/10 04:19:55;;;;;;;492.35;92.70;;;0.10;99.90;;;;;;5072455;28;20069;-83
2022/12/10 04:28:50;;;;;;;462.33;91.30;;;0.00;99.90;;;;;;5090887;28;20047;-79
2022/12/10 04:31:37;;;;;;;458.90;90.47;;;0.00;99.90;;;;;;5074252;28;20081;-82
2022/12/10 04:34:24;;;;;;;432.17;86.43;;;0.00;99.90;;;;;;5093477;28;20067;-79
2022/12/10 04:37:11;;;;;;;448.02;88.70;;;-0.10;99.90;;;;;;5094149;28;20044;-85
2022/12/10 04:39:57;;;;;;;426.02;83.68;;;-0.10;99.90;;;;;;5090524;28;20054;-81
2022/12/10 04:42:43;;;;;;;518.25;95.53;;;-0.10;99.90;;;;;;5090779;28;20052;-82
2022/12/10 04:45:29;;;;;;;394.35;76.82;;;-0.10;99.90;;;;;;5090624;28;20048;-76
2022/12/10 04:48:15;;;;;;;429.35;84.22;;;-0.10;99.90;;;;;;5090665;28;20040;-78
2022/12/10 04:51:02;;;;;;;381.65;75.88;;;-0.20;99.90;;;;;;5089787;28;20140;-83
2022/12/10 04:53:48;;;;;;;479.20;93.40;;;-0.10;99.90;;;;;;5095354;28;20085;-78
2022/12/10 04:56:34;;;;;;;445.92;87.75;;;-0.10;99.90;;;;;;5072172;28;20741;-79
2022/12/10 04:59:20;;;;;;;464.38;85.93;;;-0.10;99.90;;;;;;5090531;28;20511;-79
2022/12/10 05:02:07;;;;;;;381.25;77.07;;;-0.10;99.90;;;;;;5091261;28;20059;-75
2022/12/10 05:04:53;;;;;;;326.58;68.20;;;-0.20;99.90;;;;;;5059186;28;20052;-76
2022/12/10 05:07:39;;;;;;;414.05;77.05;;;-0.10;99.90;;;;;;5089714;28;20047;-82
2022/12/10 05:10:26;;;;;;;462.33;82.22;;;-0.10;99.90;;;;;;5078320;28;20051;-81
2022/12/10 05:13:12;;;;;;;520.88;94.00;;;-0.10;99.90;;;;;;5058914;28;20609;-85
2022/12/10 05:16:02;;;;;;;532.50;96.43;;;-0.10;99.90;;;;;;5076156;28;20044;-82
2022/12/10 05:18:49;;;;;;;534.00;90.68;;;-0.10;99.90;;;;;;5072139;28;20104;-80
2022/12/10 05:24:40;;;;;;;491.25;87.05;;;-0.10;99.90;;;;;;5071584;28;20052;-81
2022/12/10 05:27:31;;;;;;;498.13;88.38;;;-0.20;99.90;;;;;;5090959;28;20048;-77
2022/12/10 05:30:18;;;;;;;514.97;88.88;;;-0.20;99.90;;;;;;5093773;28;20048;-78
2022/12/10 05:33:04;;;;;;;474.45;84.90;;;-0.10;99.90;;;;;;5075953;28;20052;-80
2022/12/10 05:35:56;;;;;;;495.38;85.50;;;-0.10;99.90;;;;;;5089898;28;20047;-80
2022/12/10 05:38:42;;;;;;;521.33;89.10;;;-0.10;99.90;;;;;;5071725;28;20146;-78
2022/12/10 05:41:31;;;;;;;499.40;87.93;;;-0.10;99.90;;;;;;5089247;28;20117;-79
2022/12/10 05:44:17;;;;;;;566.90;94.53;;;-0.10;99.90;;;;;;5072368;28;20109;-84
2022/12/10 05:47:03;;;;;;;503.02;90.47;;;0.00;99.90;;;;;;5061609;28;20055;-87
2022/12/10 05:49:49;;;;;;;722.28;116.25;;;0.00;99.90;;;;;;5078357;28;20056;-85
2022/12/10 05:52:35;;;;;;;497.58;91.35;;;0.00;99.90;;;;;;5089958;28;20514;-80
2022/12/10 05:55:22;;;;;;;526.47;90.10;;;0.10;99.90;;;;;;5089701;28;20044;-82
2022/12/10 05:58:08;;;;;;;590.97;101.95;;;0.10;99.90;;;;;;5072324;28;20036;-79
2022/12/10 06:00:55;;;;;;;556.58;92.28;;;0.10;99.90;;;;;;5090491;28;20052;-79
2022/12/10 06:03:41;;;;;;;464.38;83.20;;;0.10;99.90;;;;;;5093217;28;20058;-85
2022/12/10 06:06:30;;;;;;;522.08;93.68;;;0.10;99.90;;;;;;5090340;28;20052;-77
2022/12/10 06:09:16;;;;;;;533.47;90.90;;;0.20;99.90;;;;;;5072016;28;20048;-78
2022/12/10 06:12:02;;;;;;;543.03;95.57;;;0.20;99.90;;;;;;5090782;28;20052;-83
2022/12/10 06:14:48;;;;;;;550.92;91.32;;;0.20;99.90;;;;;;5075768;28;20055;-84
2022/12/10 06:17:36;;;;;;;537.08;92.40;;;0.20;99.90;;;;;;5093370;28;20056;-83
2022/12/10 06:20:23;;;;;;;465.10;80.45;;;0.20;99.90;;;;;;5096411;28;20047;-79
2022/12/10 06:23:09;;;;;;;529.75;90.00;;;0.30;99.90;;;;;;5098089;28;20039;-82
2022/12/10 06:25:56;;;;;;;416.48;78.40;;;0.20;99.90;;;;;;5093021;28;20048;-85
2022/12/10 06:28:45;;;;;;;453.33;80.43;;;0.30;99.90;;;;;;5093712;28;20052;-81
2022/12/10 06:31:31;;;;;;;279.92;57.45;;;0.30;99.90;;;;;;5074548;28;20109;-78
2022/12/10 06:34:18;;;;;;;430.52;72.85;;;0.30;99.90;;;;;;5075255;28;20412;-80
2022/12/10 06:37:04;;;;;;;452.67;79.20;;;0.30;99.90;;;;;;5075374;28;20048;-86
2022/12/10 06:39:52;;;;;;;510.20;87.80;;;0.30;99.90;;;;;;5079997;28;20109;-78
2022/12/10 06:42:38;;;;;;;434.38;80.50;;;0.30;99.90;;;;;;5095616;28;20055;-80
2022/12/10 06:45:24;;;;;;;542.40;84.93;;;0.30;99.90;;;;;;5075207;28;20510;-81
2022/12/10 06:48:10;;;;;;;349.73;62.50;;;0.30;99.90;;;;;;5075456;28;20531;-81
2022/12/10 06:50:56;;;;;;;455.45;78.68;;;0.30;99.90;;;;;;5093347;28;20052;-81
2022/12/10 06:53:43;;;;;;;351.13;62.22;;;0.30;99.90;;;;;;5074852;28;20048;-83
2022/12/10 06:56:29;;;;;;;340.08;66.57;;;0.30;99.90;;;;;;5081407;28;20070;-85
2022/12/10 06:59:15;;;;;;;425.50;74.50;;;0.30;99.90;;;;;;5093493;28;20059;-78
2022/12/10 07:02:01;;;;;;;404.08;73.78;;;0.30;99.90;;;;;;5094675;28;20499;-86
2022/12/10 07:04:47;;;;;;;377.77;70.60;;;0.30;99.90;;;;;;5073948;28;20052;-81
2022/12/10 07:07:35;;;;;;;331.88;60.30;;;0.30;99.90;;;;;;5062060;28;20441;-78
2022/12/10 07:10:22;;;;;;;340.58;60.20;;;0.20;99.90;;;;;;5093725;28;20055;-82
2022/12/10 07:13:08;;;;;;;437.55;71.38;;;0.30;99.90;;;;;;5099567;28;20055;-85
2022/12/10 07:15:54;;;;;;;461.23;74.85;;;0.30;99.90;;;;;;5074986;28;20047;-81
2022/12/10 07:18:40;;;;;;;341.00;62.55;;;0.30;99.90;;;;;;5092349;28;20397;-82
2022/12/10 07:21:33;;;;;;;363.08;62.85;;;0.30;99.90;;;;;;5075422;28;20059;-79
2022/12/10 07:24:19;;;;;;;478.02;80.63;;;0.30;99.90;;;;;;5073586;28;20044;-80
2022/12/10 07:27:06;;;;;;;333.33;56.97;;;0.30;99.90;;;;;;5081956;28;20052;-82
2022/12/10 07:29:53;;;;;;;429.50;72.93;;;0.30;99.90;;;;;;5099014;28;20044;-81
2022/12/10 07:32:39;;;;;;;428.35;68.15;;;0.30;99.90;;;;;;5074739;28;20430;-84
2022/12/10 07:35:25;;;;;;;394.00;69.60;;;0.30;99.90;;;;;;5093011;28;20570;-83
2022/12/10 07:38:11;;;;;;;268.65;49.20;;;0.30;99.90;;;;;;5102640;28;20059;-85
2022/12/10 07:40:57;;;;;;;371.60;61.95;;;0.30;99.90;;;;;;5083027;28;20044;-82
2022/12/10 07:43:45;;;;;;;385.98;58.88;;;0.40;99.90;;;;;;5100448;28;20048;-79
2022/12/10 07:46:41;;;;;;;361.08;62.97;;;0.40;99.90;;;;;;5102513;28;20055;-85
2022/12/10 07:49:36;;;;;;;425.15;68.45;;;0.40;99.90;;;;;;5084473;28;20419;-80
2022/12/10 07:52:22;;;;;;;358.60;59.63;;;0.40;99.90;;;;;;5086662;28;20048;-80
2022/12/10 07:55:08;;;;;;;249.73;50.00;;;0.30;99.90;;;;;;5099013;28;20067;-77
2022/12/10 07:57:54;;;;;;;301.48;52.58;;;0.40;99.90;;;;;;5083517;28;20075;-81
2022/12/10 08:00:41;;;;;;;323.02;55.58;;;0.40;99.90;;;;;;5086947;28;20366;-84
2022/12/10 08:03:27;;;;;;;367.10;62.05;;;0.40;99.90;;;;;;5091592;28;20072;-84
2022/12/10 08:06:15;;;;;;;457.27;69.55;;;0.40;99.90;;;;;;5100316;28;20052;-81
2022/12/10 08:09:02;;;;;;;350.40;57.75;;;0.40;99.90;;;;;;5075768;28;20109;-79
2022/12/10 08:11:48;;;;;;;326.13;56.17;;;0.50;99.90;;;;;;5074964;28;20044;-78
2022/12/10 08:14:35;;;;;;;293.33;50.67;;;0.40;99.90;;;;;;5073370;28;20055;-77
2022/12/10 08:17:21;;;;;;;306.65;51.30;;;0.50;99.90;;;;;;5074212;28;20051;-79
2022/12/10 08:20:08;;;;;;;363.48;57.22;;;0.50;99.90;;;;;;5099813;28;20108;-81
2022/12/10 08:22:54;;;;;;;303.23;51.13;;;0.50;99.90;;;;;;5079447;28;20094;-80
2022/12/10 08:25:40;;;;;;;290.00;49.72;;;0.50;99.90;;;;;;5095233;28;20052;-86
2022/12/10 08:28:26;;;;;;;328.08;54.55;;;0.50;99.90;;;;;;5093641;28;20059;-78
2022/12/10 08:31:14;;;;;;;226.02;44.08;;;0.60;99.90;;;;;;5073119;28;20055;-79
2022/12/10 08:34:00;;;;;;;265.65;47.38;;;0.60;99.90;;;;;;5093296;28;20040;-77
2022/12/10 08:36:47;;;;;;;270.33;46.10;;;0.60;99.90;;;;;;5094646;28;20083;-78
2022/12/10 08:39:34;;;;;;;402.52;59.95;;;0.60;99.90;;;;;;5091939;28;20160;-80
2022/12/10 08:42:20;;;;;;;205.23;39.88;;;0.70;99.90;;;;;;5092112;28;20102;-86
2022/12/10 08:45:06;;;;;;;264.88;42.05;;;0.70;99.90;;;;;;5090590;28;20055;-82
2022/12/10 08:47:52;;;;;;;316.10;51.40;;;0.70;99.90;;;;;;5092369;28;20059;-80
2022/12/10 08:50:39;;;;;;;228.75;39.83;;;0.70;99.90;;;;;;5074625;28;20129;-82
2022/12/10 08:53:25;;;;;;;319.23;49.92;;;0.60;99.90;;;;;;5095666;28;20062;-77
2022/12/10 08:56:12;;;;;;;216.90;38.30;;;0.60;99.90;;;;;;5091428;28;20100;-83
2022/12/10 08:58:58;;;;;;;292.52;44.35;;;0.70;99.90;;;;;;5090957;28;20052;-84
2022/12/10 09:01:44;;;;;;;233.90;39.55;;;0.70;99.90;;;;;;5071287;28;20136;-80
2022/12/10 09:04:30;;;;;;;236.68;43.03;;;0.60;99.90;;;;;;5092584;28;20044;-82
2022/12/10 09:07:17;;;;;;;286.65;46.30;;;0.70;99.90;;;;;;5073117;28;20055;-84
2022/12/10 09:10:03;;;;;;;290.48;45.95;;;0.60;99.90;;;;;;5063376;28;20056;-85
2022/12/10 09:12:49;;;;;;;181.07;36.50;;;0.60;99.90;;;;;;5076891;28;20040;-81
2022/12/10 09:15:36;;;;;;;307.73;48.72;;;0.70;99.90;;;;;;5091150;28;20130;-81
2022/12/10 09:18:22;;;;;;;284.90;45.88;;;0.70;99.90;;;;;;5074034;28;20055;-86
2022/12/10 09:21:12;;;;;;;260.65;41.35;;;0.70;99.90;;;;;;5072582;28;20044;-78
2022/12/10 09:23:58;;;;;;;211.30;37.85;;;0.60;99.90;;;;;;5091356;28;20491;-76
2022/12/10 09:26:44;;;;;;;374.27;55.90;;;0.60;99.90;;;;;;5077261;28;20051;-84
2022/12/10 09:29:31;;;;;;;255.02;41.22;;;0.60;99.90;;;;;;5098166;28;20051;-81
2022/12/10 09:32:17;;;;;;;250.77;41.67;;;0.60;99.90;;;;;;5076096;28;20131;-81
2022/12/10 09:35:04;;;;;;;259.10;42.20;;;0.70;99.90;;;;;;5090898;28;20044;-84
2022/12/10 09:37:50;;;;;;;306.35;47.85;;;0.70;99.90;;;;;;5091392;28;20040;-76
2022/12/10 09:40:47;;;;;;;219.02;39.28;;;0.70;99.90;;;;;;5090338;28;20048;-77
2022/12/10 09:44:05;;;;;;;380.80;57.38;;;0.70;99.90;;;;;;5071709;28;20052;-78
2022/12/10 09:46:53;;;;;;;189.95;34.00;;;0.70;99.90;;;;;;5092668;28;20052;-77
2022/12/10 09:49:42;;;;;;;220.07;39.88;;;0.70;99.90;;;;;;5079959;28;20043;-82
2022/12/10 09:52:35;;;;;;;275.88;42.08;;;0.70;99.90;;;;;;5076805;28;20071;-86
2022/12/10 09:55:37;;;;;;;279.08;41.83;;;0.70;99.90;;;;;;5075899;28;20620;-80
2022/12/10 09:58:26;;;;;;;227.32;37.35;;;0.70;99.90;;;;;;5094132;28;20518;-80
2022/12/10 10:01:15;;;;;;;178.95;32.38;;;0.70;99.90;;;;;;5093949;28;20044;-79
2022/12/10 10:04:03;;;;;;;188.65;35.67;;;0.80;99.90;;;;;;5094349;28;20415;-78
2022/12/10 10:06:49;;;;;;;234.32;36.60;;;0.80;99.90;;;;;;5094245;28;20084;-81
2022/12/10 10:09:39;;;;;;;216.48;36.45;;;0.80;99.90;;;;;;5096809;28;20052;-85
2022/12/10 10:12:29;;;;;;;151.65;29.23;;;0.80;99.90;;;;;;5076925;28;20105;-86
2022/12/10 10:15:23;;;;;;;202.18;38.08;;;0.80;99.90;;;;;;5077927;28;20048;-79
2022/12/10 10:18:15;;;;;;;152.15;30.83;;;0.80;99.90;;;;;;5061524;28;20104;-78
2022/12/10 10:21:03;;;;;;;134.38;27.92;;;0.80;99.90;;;;;;5094728;28;20052;-81
2022/12/10 10:23:49;;;;;;;133.10;27.75;;;0.90;99.90;;;;;;5065632;28;20519;-79
2022/12/10 10:26:38;;;;;;;179.38;32.70;;;0.90;99.90;;;;;;5078649;28;20510;-79
2022/12/10 10:29:27;;;;;;;203.23;34.72;;;0.90;99.90;;;;;;5077506;28;20048;-80
2022/12/10 10:32:19;;;;;;;171.43;30.90;;;0.90;99.90;;;;;;5092901;28;20131;-77
2022/12/10 10:35:06;;;;;;;154.35;31.38;;;0.90;99.90;;;;;;5085301;28;20090;-83
2022/12/10 10:38:02;;;;;;;137.70;30.10;;;0.90;99.90;;;;;;5093431;28;20080;-78
2022/12/10 10:41:02;;;;;;;165.25;29.52;;;0.90;99.90;;;;;;5094533;28;20055;-78
2022/12/10 10:44:01;;;;;;;158.85;29.73;;;0.90;99.90;;;;;;5094302;28;20385;-86
2022/12/10 10:46:50;;;;;;;132.75;28.15;;;0.90;99.90;;;;;;5062058;28;20068;-82
2022/12/10 10:49:44;;;;;;;184.52;31.48;;;0.90;99.90;;;;;;5093825;28;20048;-83
2022/12/10 10:52:38;;;;;;;169.40;30.90;;;0.90;99.90;;;;;;5096140;28;20392;-86
2022/12/10 10:55:35;;;;;;;184.82;34.63;;;0.90;99.90;;;;;;5081076;28;20051;-78
2022/12/10 10:58:23;;;;;;;151.82;28.70;;;0.90;99.90;;;;;;5074521;28;20071;-81
2022/12/10 11:01:09;;;;;;;153.43;28.60;;;0.90;99.90;;;;;;5073974;28;20047;-84
2022/12/10 11:03:59;;;;;;;197.77;31.63;;;0.90;99.90;;;;;;5092927;28;20048;-79
2022/12/10 11:06:46;;;;;;;145.88;31.73;;;0.90;99.90;;;;;;5075812;28;20048;-86
2022/12/10 11:09:33;;;;;;;188.85;31.45;;;0.90;99.90;;;;;;5093671;28;20131;-80
2022/12/10 11:12:40;;;;;;;178.98;31.70;;;0.90;99.90;;;;;;5093093;28;20048;-81
2022/12/10 11:15:31;;;;;;;184.13;31.90;;;0.90;99.90;;;;;;5097227;28;20139;-82
2022/12/10 11:19:01;;;;;;;173.15;31.90;;;0.90;99.90;;;;;;5093231;28;20066;-81
2022/12/10 11:21:48;;;;;;;200.38;34.33;;;0.90;99.90;;;;;;5065381;28;20051;-85
2022/12/10 11:24:34;;;;;;;126.13;25.70;;;0.90;99.90;;;;;;5066401;28;20048;-84
2022/12/10 11:27:53;;;;;;;182.68;32.30;;;0.90;99.90;;;;;;5076526;28;20052;-79
2022/12/10 11:30:51;;;;;;;173.43;33.25;;;0.90;99.90;;;;;;5074450;28;20044;-83
2022/12/10 11:33:42;;;;;;;124.20;27.23;;;0.90;99.90;;;;;;5093665;28;20138;-79
2022/12/10 11:36:46;;;;;;;112.90;27.88;;;0.90;99.90;;;;;;5078577;28;20044;-85
2022/12/10 11:39:33;;;;;;;182.85;32.80;;;0.90;99.90;;;;;;5060898;28;20044;-81
2022/12/10 11:42:26;;;;;;;102.78;24.88;;;0.90;99.90;;;;;;5060811;28;20105;-85
2022/12/10 11:45:48;;;;;;;148.68;30.83;;;0.90;99.90;;;;;;5074941;28;20132;-85
2022/12/10 11:49:12;;;;;;;242.38;37.58;;;0.90;99.90;;;;;;5010128;28;20402;-87
2022/12/10 11:52:18;;;;;;;145.20;30.02;;;0.90;99.90;;;;;;5093293;28;20048;-86
2022/12/10 11:55:13;;;;;;;123.15;29.63;;;0.90;99.90;;;;;;5083637;28;20044;-78
2022/12/10 11:58:17;;;;;;;179.70;30.57;;;0.90;99.90;;;;;;5061015;28;20051;-85
2022/12/10 12:01:10;;;;;;;153.02;30.38;;;0.90;99.90;;;;;;5094840;28;20388;-78
2022/12/10 12:04:17;;;;;;;133.27;28.20;;;0.90;99.90;;;;;;5093722;28;20043;-86
2022/12/10 12:07:25;;;;;;;157.35;30.63;;;0.90;99.90;;;;;;5084508;28;20048;-79
2022/12/10 12:10:27;;;;;;;158.93;31.23;;;0.90;99.90;;;;;;5074769;28;20139;-79
2022/12/10 12:13:13;;;;;;;196.95;35.95;;;0.90;99.90;;;;;;5074339;28;20039;-81
2022/12/10 12:16:40;;;;;;;126.38;27.27;;;0.90;99.90;;;;;;5094158;28;20054;-84
2022/12/10 12:19:39;;;;;;;95.95;25.77;;;0.90;99.90;;;;;;5074275;28;20093;-82
2022/12/10 12:22:37;;;;;;;129.55;28.80;;;0.90;99.90;;;;;;5091772;28;20119;-85
2022/12/10 12:25:29;;;;;;;124.97;28.05;;;0.90;99.90;;;;;;5073456;28;20044;-81
2022/12/10 12:28:38;;;;;;;160.98;31.92;;;0.90;99.90;;;;;;5059927;28;20063;-79
2022/12/10 12:31:32;;;;;;;131.82;28.73;;;0.90;99.90;;;;;;5092397;28;20160;-78
2022/12/10 12:34:29;;;;;;;127.18;27.23;;;1.00;99.90;;;;;;5091805;28;20040;-80
2022/12/10 12:37:19;;;;;;;199.93;33.33;;;0.90;99.90;;;;;;5091277;28;20070;-86
2022/12/10 12:40:45;;;;;;;140.95;27.38;;;0.90;99.90;;;;;;5073375;28;20052;-86
2022/12/10 12:43:34;;;;;;;176.73;32.92;;;1.00;99.90;;;;;;5078178;28;20067;-85
2022/12/10 12:46:46;;;;;;;224.57;38.47;;;1.00;99.90;;;;;;5090809;28;20135;-78
2022/12/10 12:49:39;;;;;;;202.63;37.05;;;1.00;99.90;;;;;;5091508;28;20048;-79
2022/12/10 12:52:46;;;;;;;228.82;38.15;;;1.00;99.90;;;;;;5091904;28;20056;-80
2022/12/10 12:55:44;;;;;;;227.73;42.28;;;1.00;99.90;;;;;;5090885;28;20048;-79
2022/12/10 12:58:31;;;;;;;182.98;35.03;;;1.00;99.90;;;;;;5091544;28;20121;-78
2022/12/10 13:01:25;;;;;;;304.58;48.20;;;1.00;99.90;;;;;;5092443;28;20055;-80
2022/12/10 13:04:13;;;;;;;204.02;38.33;;;1.10;99.90;;;;;;5061250;28;20048;-81
2022/12/10 13:07:26;;;;;;;239.23;41.20;;;1.10;99.90;;;;;;5075358;28;20086;-82
2022/12/10 13:10:13;;;;;;;289.67;42.92;;;1.10;99.90;;;;;;5078534;28;20066;-80
2022/12/10 13:13:28;;;;;;;199.95;36.47;;;1.20;99.90;;;;;;5092209;28;20044;-80
2022/12/10 13:16:46;;;;;;;174.35;34.17;;;1.20;99.90;;;;;;5091027;28;20076;-78
2022/12/10 13:19:34;;;;;;;183.50;36.03;;;1.20;99.90;;;;;;5079644;28;20048;-84
2022/12/10 13:22:38;;;;;;;211.65;39.97;;;1.30;99.90;;;;;;5093676;28;20105;-83
2022/12/10 13:25:41;;;;;;;242.38;41.47;;;1.30;99.90;;;;;;5090672;28;20052;-84
2022/12/10 13:28:51;;;;;;;249.82;47.60;;;1.30;99.90;;;;;;5089559;28;20044;-79
2022/12/10 13:31:38;;;;;;;232.80;43.22;;;1.30;99.90;;;;;;5075797;28;20533;-80
2022/12/10 13:34:34;;;;;;;163.27;38.40;;;1.30;99.90;;;;;;5089750;28;20466;-79
2022/12/10 13:37:31;;;;;;;121.88;35.75;;;1.30;99.90;;;;;;5072714;28;20082;-80
2022/12/10 13:47:04;;;;;;;227.90;45.22;;;1.40;99.90;;;;;;5071944;28;20496;-86
2022/12/10 13:49:54;;;;;;;185.27;40.47;;;1.30;99.90;;;;;;5071039;28;20055;-78
2022/12/10 13:52:55;;;;;;;184.15;39.55;;;1.30;99.90;;;;;;5090556;28;20047;-85
2022/12/10 13:56:03;;;;;;;140.43;35.03;;;1.30;99.90;;;;;;5060772;28;20072;-84
2022/12/10 13:58:53;;;;;;;196.45;40.47;;;1.40;99.90;;;;;;5054309;28;20048;-79
2022/12/10 14:01:49;;;;;;;157.85;37.78;;;1.30;99.90;;;;;;5051944;28;20056;-80
2022/12/10 14:04:55;;;;;;;151.23;39.83;;;1.40;99.90;;;;;;5070572;28;20048;-80
2022/12/10 14:07:46;;;;;;;191.75;45.03;;;1.30;99.90;;;;;;5015184;28;20053;-88
2022/12/10 14:10:35;;;;;;;163.90;40.55;;;1.40;99.90;;;;;;5071511;28;20052;-87
2022/12/10 14:13:31;;;;;;;150.02;39.38;;;1.40;99.90;;;;;;5071967;28;20506;-83
2022/12/10 14:16:22;;;;;;;175.82;40.85;;;1.40;99.90;;;;;;5042069;28;20048;-79
2022/12/10 14:19:14;;;;;;;207.85;46.40;;;1.40;99.90;;;;;;5052295;28;20040;-78
2022/12/10 14:22:08;;;;;;;214.25;47.38;;;1.40;99.90;;;;;;5069377;28;20046;-80
2022/12/10 14:25:04;;;;;;;187.70;42.50;;;1.40;99.90;;;;;;5055294;28;20412;-83
2022/12/10 14:27:52;;;;;;;188.60;44.58;;;1.40;99.90;;;;;;5056293;28;20045;-82
2022/12/10 14:30:43;;;;;;;166.18;40.92;;;1.40;99.90;;;;;;5077257;28;20063;-83
2022/12/10 14:33:29;;;;;;;137.25;35.70;;;1.40;99.90;;;;;;5057172;28;20048;-81
2022/12/10 14:36:44;;;;;;;183.90;47.22;;;1.40;99.90;;;;;;5047755;28;20044;-81
2022/12/10 14:39:33;;;;;;;194.07;45.47;;;1.40;99.90;;;;;;5054857;28;20052;-82
2022/12/10 14:42:19;;;;;;;244.63;47.95;;;1.40;99.90;;;;;;5027812;28;20132;-79
2022/12/10 14:45:07;;;;;;;237.45;48.35;;;1.30;99.90;;;;;;5041523;28;20109;-84